createdAt,value
2018-09-04T00:01:06.305Z,98041.86
2018-09-04T00:03:35.513Z,98039.49
2018-09-04T00:06:04.670Z,98037.91
2018-09-04T00:08:33.775Z,98038.33
2018-09-04T00:11:02.937Z,98041.86
2018-09-04T00:13:32.054Z,98044.56
2018-09-04T00:16:05.762Z,98041.33
2018-09-04T00:18:34.991Z,98033.51
2018-09-04T00:21:04.390Z,98040.44
2018-09-04T00:23:33.562Z,98037.71
2018-09-04T00:26:05.901Z,98034.27
2018-09-04T00:28:35.098Z,98031.12
2018-09-04T00:31:04.490Z,98028.75
2018-09-04T00:33:33.737Z,98022.97
2018-09-04T00:36:02.939Z,98026.69
2018-09-04T00:38:32.081Z,98027.95
2018-09-04T00:41:01.235Z,98027.36
2018-09-04T00:43:30.391Z,98033.00
2018-09-04T00:45:59.511Z,98030.36
2018-09-04T00:48:28.644Z,98030.20
2018-09-04T00:50:57.780Z,98030.38
2018-09-04T00:53:27.034Z,98032.44
2018-09-04T00:55:56.161Z,98027.23
2018-09-04T00:58:25.289Z,98027.17
2018-09-04T01:00:54.426Z,98028.83
2018-09-04T01:03:23.587Z,98029.80
2018-09-04T01:05:52.765Z,98030.42
2018-09-04T01:08:22.139Z,98030.95
2018-09-04T01:10:51.306Z,98028.41
2018-09-04T01:13:20.546Z,98027.66
2018-09-04T01:15:49.762Z,98027.94
2018-09-04T01:18:19.685Z,98031.23
2018-09-04T01:20:48.843Z,98036.45
2018-09-04T01:23:18.066Z,98031.95
2018-09-04T01:25:47.193Z,98028.81
2018-09-04T01:28:16.323Z,98031.20
2018-09-04T01:30:45.493Z,98032.77
2018-09-04T01:33:14.835Z,98031.67
2018-09-04T01:35:44.111Z,98036.44
2018-09-04T01:40:49.353Z,98043.78
2018-09-04T01:43:18.562Z,98039.30
2018-09-04T01:45:47.768Z,98039.69
2018-09-04T01:48:16.911Z,98044.60
2018-09-04T01:50:46.127Z,98041.36
2018-09-04T01:53:15.714Z,98041.09
2018-09-04T01:55:44.842Z,98043.02
2018-09-04T01:58:14.001Z,98044.02
2018-09-04T02:00:43.134Z,98044.70
2018-09-04T02:03:12.339Z,98043.42
2018-09-04T02:05:41.515Z,98039.69
2018-09-04T02:08:10.653Z,98040.48
2018-09-04T02:10:39.822Z,98041.47
2018-09-04T02:13:09.020Z,98038.48
2018-09-04T02:15:38.201Z,98038.01
2018-09-04T02:18:07.394Z,98032.73
2018-09-04T02:20:36.551Z,98035.56
2018-09-04T02:23:05.794Z,98032.73
2018-09-04T02:25:34.953Z,98033.02
2018-09-04T02:28:04.129Z,98028.11
2018-09-04T02:30:33.381Z,98028.20
2018-09-04T02:33:02.704Z,98038.52
2018-09-04T02:35:31.869Z,98036.73
2018-09-04T02:38:01.016Z,98039.39
2018-09-04T02:40:30.182Z,98032.04
2018-09-04T02:42:59.313Z,98032.73
2018-09-04T02:45:28.438Z,98030.56
2018-09-04T02:47:57.603Z,98033.30
2018-09-04T02:50:26.759Z,98034.09
2018-09-04T02:52:55.961Z,98033.90
2018-09-04T02:55:25.121Z,98035.55
2018-09-04T02:57:54.241Z,98032.42
2018-09-04T03:00:24.186Z,98037.21
2018-09-04T03:02:53.329Z,98045.98
2018-09-04T03:05:22.473Z,98038.21
2018-09-04T03:07:52.014Z,98038.52
2018-09-04T03:10:21.175Z,98032.82
2018-09-04T03:12:50.301Z,98029.57
2018-09-04T03:15:19.437Z,98031.94
2018-09-04T03:17:49.257Z,98033.58
2018-09-04T03:20:19.962Z,98028.88
2018-09-04T03:22:49.427Z,98024.78
2018-09-04T03:25:18.495Z,98028.19
2018-09-04T03:27:47.697Z,98036.23
2018-09-04T03:30:16.933Z,98037.83
2018-09-04T03:32:46.254Z,98045.38
2018-09-04T03:35:16.392Z,98039.98
2018-09-04T03:37:46.117Z,98035.75
2018-09-04T03:40:15.286Z,98039.69
2018-09-04T03:42:44.457Z,98036.05
2018-09-04T03:45:13.583Z,98035.77
2018-09-04T03:47:42.732Z,98037.42
2018-09-04T03:50:11.921Z,98038.30
2018-09-04T03:52:41.731Z,98036.25
2018-09-04T03:55:10.989Z,98043.02
2018-09-04T03:57:40.140Z,98050.80
2018-09-04T04:00:09.306Z,98059.13
2018-09-04T04:02:38.413Z,98062.85
2018-09-04T04:05:07.929Z,98067.46
2018-09-04T04:07:37.157Z,98062.17
2018-09-04T04:10:06.341Z,98062.18
2018-09-04T04:12:39.148Z,98059.63
2018-09-04T04:15:08.295Z,98067.80
2018-09-04T04:17:37.422Z,98062.49
2018-09-04T04:20:06.579Z,98065.30
2018-09-04T04:22:35.730Z,98063.36
2018-09-04T04:25:04.873Z,98066.09
2018-09-04T04:27:34.023Z,98069.22
2018-09-04T04:30:03.190Z,98064.02
2018-09-04T04:32:32.334Z,98065.67
2018-09-04T04:35:02.118Z,98072.34
2018-09-04T04:37:31.274Z,98073.72
2018-09-04T04:40:00.422Z,98069.86
2018-09-04T04:42:29.765Z,98071.32
2018-09-04T04:44:58.901Z,98077.80
2018-09-04T04:47:33.385Z,98073.75
2018-09-04T04:50:03.318Z,98070.73
2018-09-04T04:52:33.022Z,98074.63
2018-09-04T04:55:02.341Z,98078.08
2018-09-04T04:57:32.274Z,98085.91
2018-09-04T05:00:01.569Z,98088.19
2018-09-04T05:02:30.890Z,98084.75
2018-09-04T05:05:00.257Z,98094.77
2018-09-04T05:07:30.086Z,98083.98
2018-09-04T05:09:58.953Z,98086.56
2018-09-04T05:12:28.354Z,98085.78
2018-09-04T05:14:57.474Z,98086.09
2018-09-04T05:17:26.650Z,98090.59
2018-09-04T05:19:55.818Z,98089.41
2018-09-04T05:22:25.556Z,98088.69
2018-09-04T05:24:54.870Z,98096.85
2018-09-04T05:27:24.149Z,98101.98
2018-09-04T05:29:53.482Z,98109.20
2018-09-04T05:34:29.966Z,98105.99
2018-09-04T05:36:59.122Z,98111.06
2018-09-04T05:39:28.237Z,98107.80
2018-09-04T05:42:01.450Z,98106.31
2018-09-04T05:44:31.081Z,98110.73
2018-09-04T05:47:00.209Z,98114.21
2018-09-04T05:49:32.719Z,98109.00
2018-09-04T05:52:02.431Z,98112.53
2018-09-04T05:54:31.585Z,98120.89
2018-09-04T05:57:01.513Z,98125.80
2018-09-04T05:59:30.611Z,98121.39
2018-09-04T06:01:59.716Z,98120.81
2018-09-04T06:04:29.571Z,98125.02
2018-09-04T06:06:58.682Z,98131.08
2018-09-04T06:09:27.825Z,98135.52
2018-09-04T06:11:56.967Z,98135.38
2018-09-04T06:14:26.130Z,98132.44
2018-09-04T06:16:55.268Z,98130.19
2018-09-04T06:19:24.414Z,98134.86
2018-09-04T06:21:53.562Z,98139.28
2018-09-04T06:24:22.698Z,98138.71
2018-09-04T06:26:51.835Z,98143.63
2018-09-04T06:29:21.095Z,98140.53
2018-09-04T06:31:50.190Z,98135.54
2018-09-04T06:34:19.341Z,98137.09
2018-09-04T06:36:48.579Z,98140.07
2018-09-04T06:39:17.615Z,98143.15
2018-09-04T06:41:46.737Z,98147.41
2018-09-04T06:44:15.906Z,98142.91
2018-09-04T06:46:45.043Z,98141.86
2018-09-04T06:49:14.152Z,98136.88
2018-09-04T06:51:43.268Z,98136.77
2018-09-04T06:54:13.254Z,98132.02
2018-09-04T06:56:42.922Z,98140.70
2018-09-04T06:59:12.143Z,98145.06
2018-09-04T07:01:41.635Z,98144.39
2018-09-04T07:04:10.774Z,98142.88
2018-09-04T07:06:39.950Z,98140.03
2018-09-04T07:09:11.747Z,98141.08
2018-09-04T07:11:41.265Z,98145.23
2018-09-04T07:14:10.424Z,98139.34
2018-09-04T07:16:40.085Z,98150.33
2018-09-04T07:19:09.510Z,98146.40
2018-09-04T07:21:38.659Z,98151.13
2018-09-04T07:24:07.773Z,98147.66
2018-09-04T07:26:36.931Z,98150.48
2018-09-04T07:29:06.114Z,98141.19
2018-09-04T07:31:35.246Z,98136.81
2018-09-04T07:34:04.365Z,98149.37
2018-09-04T07:36:33.537Z,98139.59
2018-09-04T07:39:04.012Z,98146.71
2018-09-04T07:41:33.167Z,98142.24
2018-09-04T07:44:02.298Z,98142.09
2018-09-04T07:46:31.518Z,98132.73
2018-09-04T07:49:00.631Z,98139.90
2018-09-04T07:51:29.915Z,98143.79
2018-09-04T07:53:59.162Z,98139.37
2018-09-04T07:56:28.343Z,98133.87
2018-09-04T07:58:57.521Z,98131.77
2018-09-04T08:01:26.929Z,98125.66
2018-09-04T08:03:56.554Z,98122.24
2018-09-04T08:06:25.826Z,98116.76
2018-09-04T08:08:55.097Z,98111.91
2018-09-04T08:11:24.345Z,98122.66
2018-09-04T08:13:53.481Z,98118.84
2018-09-04T08:16:22.800Z,98120.44
2018-09-04T08:18:51.885Z,98115.87
2018-09-04T08:21:21.005Z,98114.75
2018-09-04T08:23:50.293Z,98108.55
2018-09-04T08:26:19.427Z,98109.54
2018-09-04T08:28:48.542Z,98108.08
2018-09-04T08:31:17.662Z,98113.59
2018-09-04T08:33:46.793Z,98114.75
2018-09-04T08:36:15.920Z,98112.27
2018-09-04T08:38:49.088Z,98112.50
2018-09-04T08:41:18.444Z,98110.63
2018-09-04T08:43:48.086Z,98109.70
2018-09-04T08:46:17.575Z,98111.41
2018-09-04T08:48:46.765Z,98106.98
2018-09-04T08:51:15.909Z,98098.84
2018-09-04T08:53:45.182Z,98099.16
2018-09-04T08:56:14.318Z,98096.04
2018-09-04T08:58:43.537Z,98097.12
2018-09-04T09:01:12.622Z,98087.55
2018-09-04T09:03:41.784Z,98092.49
2018-09-04T09:06:10.869Z,98091.25
2018-09-04T09:08:40.042Z,98079.31
2018-09-04T09:11:09.180Z,98079.84
2018-09-04T09:13:38.310Z,98072.13
2018-09-04T09:16:07.608Z,98072.23
2018-09-04T09:18:36.688Z,98066.52
2018-09-04T09:21:12.513Z,98064.71
2018-09-04T09:23:41.690Z,98071.84
2018-09-04T09:26:10.818Z,98070.75
2018-09-04T09:28:39.981Z,98075.48
2018-09-04T09:31:09.126Z,98077.53
2018-09-04T09:33:38.243Z,98074.72
2018-09-04T09:36:07.376Z,98072.00
2018-09-04T09:38:36.690Z,98065.19
2018-09-04T09:41:06.049Z,98067.61
2018-09-04T09:43:35.197Z,98066.63
2018-09-04T09:46:04.351Z,98063.08
2018-09-04T09:48:38.657Z,98062.34
2018-09-04T09:51:07.970Z,98057.16
2018-09-04T09:53:37.330Z,98058.76
2018-09-04T09:56:06.844Z,98051.86
2018-09-04T09:58:35.968Z,98058.03
2018-09-04T10:01:11.560Z,98054.09
2018-09-04T10:04:14.905Z,98052.38
2018-09-04T10:06:43.969Z,98054.58
2018-09-04T10:09:13.110Z,98049.77
2018-09-04T10:11:42.234Z,98047.56
2018-09-04T10:14:11.407Z,98041.86
2018-09-04T10:16:40.618Z,98038.29
2018-09-04T10:19:09.971Z,98039.75
2018-09-04T10:21:45.826Z,98039.47
2018-09-04T10:24:14.949Z,98032.27
2018-09-04T10:26:44.093Z,98040.23
2018-09-04T10:29:13.249Z,98039.11
2018-09-04T10:31:42.407Z,98043.99
2018-09-04T10:34:14.448Z,98040.81
2018-09-04T10:36:44.014Z,98036.11
2018-09-04T10:39:18.340Z,98036.64
2018-09-04T10:41:47.471Z,98036.14
2018-09-04T10:44:16.645Z,98036.90
2018-09-04T10:46:45.738Z,98035.09
2018-09-04T10:49:14.851Z,98034.52
2018-09-04T10:51:44.026Z,98027.63
2018-09-04T10:54:13.194Z,98028.94
2018-09-04T10:56:42.303Z,98031.84
2018-09-04T10:59:11.426Z,98028.27
2018-09-04T11:01:40.967Z,98029.30
2018-09-04T11:04:10.126Z,98029.92
2018-09-04T11:06:39.252Z,98025.34
2018-09-04T11:09:10.694Z,98032.89
2018-09-04T11:11:41.791Z,98031.27
2018-09-04T11:14:11.245Z,98031.66
2018-09-04T11:16:40.383Z,98027.80
2018-09-04T11:19:09.466Z,98030.86
2018-09-04T11:21:38.686Z,98030.73
2018-09-04T11:24:07.913Z,98021.19
2018-09-04T11:26:37.546Z,98026.06
2018-09-04T11:29:09.095Z,98026.71
2018-09-04T11:31:38.338Z,98018.55
2018-09-04T11:34:08.345Z,98017.64
2018-09-04T11:36:37.540Z,98017.32
2018-09-04T11:39:09.859Z,98019.41
2018-09-04T11:41:39.587Z,98014.15
2018-09-04T11:44:14.898Z,98013.13
2018-09-04T11:46:44.206Z,98009.05
2018-09-04T11:49:13.445Z,98017.04
2018-09-04T11:51:42.626Z,98014.76
2018-09-04T11:54:11.746Z,98017.65
2018-09-04T11:56:41.419Z,98006.22
2018-09-04T11:59:11.274Z,98004.30
2018-09-04T12:01:43.913Z,98014.64
2018-09-04T12:04:13.581Z,98015.75
2018-09-04T12:06:42.780Z,98011.58
2018-09-04T12:09:11.893Z,98014.73
2018-09-04T12:11:41.022Z,98017.27
2018-09-04T12:14:10.182Z,98003.09
2018-09-04T12:16:39.347Z,98010.21
2018-09-04T12:19:08.481Z,98010.09
2018-09-04T12:21:37.598Z,98012.74
2018-09-04T12:24:06.332Z,98012.34
2018-09-04T12:26:35.448Z,98014.21
2018-09-04T12:29:04.613Z,98015.96
2018-09-04T12:31:33.867Z,98008.48
2018-09-04T12:34:03.042Z,98015.44
2018-09-04T12:36:32.170Z,98015.65
2018-09-04T12:39:01.349Z,98009.73
2018-09-04T12:41:30.537Z,98012.46
2018-09-04T12:43:59.765Z,98010.57
2018-09-04T12:46:31.339Z,98009.41
2018-09-04T12:49:00.537Z,98007.81
2018-09-04T12:51:29.721Z,98008.04
2018-09-04T12:53:58.809Z,98007.52
2018-09-04T12:56:28.002Z,98012.70
2018-09-04T12:58:57.186Z,98016.27
2018-09-04T13:01:26.347Z,98017.98
2018-09-04T13:03:55.491Z,98015.92
2018-09-04T13:06:24.615Z,98015.12
2018-09-04T13:08:54.514Z,98014.01
2018-09-04T13:11:23.614Z,98011.40
2018-09-04T13:13:52.917Z,98012.20
2018-09-04T13:16:22.042Z,98017.52
2018-09-04T13:18:51.214Z,98009.72
2018-09-04T13:21:22.696Z,98002.42
2018-09-04T13:23:51.857Z,98010.78
2018-09-04T13:26:21.142Z,98004.34
2018-09-04T13:28:50.371Z,97999.94
2018-09-04T13:31:19.594Z,98001.58
2018-09-04T13:33:48.854Z,97998.47
2018-09-04T13:36:18.061Z,98007.28
2018-09-04T13:38:47.266Z,97992.52
2018-09-04T13:41:16.817Z,97999.08
2018-09-04T13:43:46.613Z,97998.98
2018-09-04T13:46:15.825Z,97988.64
2018-09-04T13:48:45.722Z,97991.16
2018-09-04T13:51:15.641Z,97986.83
2018-09-04T13:53:44.733Z,97988.19
2018-09-04T13:56:13.847Z,97986.18
2018-09-04T13:58:43.002Z,97982.30
2018-09-04T14:01:12.124Z,97978.84
2018-09-04T14:03:41.247Z,97979.49
2018-09-04T14:06:11.034Z,97980.98
2018-09-04T14:08:40.186Z,97974.02
2018-09-04T14:11:09.345Z,97975.05
2018-09-04T14:13:38.442Z,97971.33
2018-09-04T14:16:09.397Z,97963.97
2018-09-04T14:18:38.533Z,97961.61
2018-09-04T14:21:07.870Z,97972.42
2018-09-04T14:23:36.974Z,97968.27
2018-09-04T14:26:06.434Z,97965.69
2018-09-04T14:28:42.718Z,97965.40
2018-09-04T14:31:05.038Z,97967.81
2018-09-04T14:33:34.228Z,97962.96
2018-09-04T14:36:03.432Z,97965.92
2018-09-04T14:38:32.545Z,97965.05
2018-09-04T14:41:01.749Z,97973.84
2018-09-04T14:43:30.887Z,97975.78
2018-09-04T14:46:00.001Z,97978.12
2018-09-04T14:48:29.152Z,97972.83
2018-09-04T14:50:58.272Z,97966.98
2018-09-04T14:53:27.487Z,97971.92
2018-09-04T14:55:57.026Z,97966.52
2018-09-04T14:58:26.160Z,97968.63
2018-09-04T15:00:55.322Z,97967.97
2018-09-04T15:03:24.711Z,97971.99
2018-09-04T15:05:53.837Z,97967.48
2018-09-04T15:08:23.209Z,97968.84
2018-09-04T15:10:52.366Z,97971.77
2018-09-04T15:13:21.490Z,97965.46
2018-09-04T15:15:50.648Z,97956.16
2018-09-04T15:18:21.121Z,97958.68
2018-09-04T15:20:50.239Z,97963.54
2018-09-04T15:23:48.757Z,97963.26
2018-09-04T15:26:17.890Z,97967.69
2018-09-04T15:28:47.045Z,97971.62
2018-09-04T15:31:16.237Z,97970.38
2018-09-04T15:33:45.362Z,97971.17
2018-09-04T15:36:14.721Z,97971.87
2018-09-04T15:38:43.850Z,97968.41
2018-09-04T15:41:12.962Z,97969.20
2018-09-04T15:43:42.138Z,97974.23
2018-09-04T15:46:11.621Z,97973.67
2018-09-04T15:48:40.761Z,97973.08
2018-09-04T15:51:10.765Z,97972.99
2018-09-04T15:53:39.886Z,97963.95
2018-09-04T15:56:09.022Z,97965.42
2018-09-04T15:58:38.134Z,97969.16
2018-09-04T16:01:07.380Z,97967.63
2018-09-04T16:03:36.537Z,97961.05
2018-09-04T16:06:05.703Z,97962.48
2018-09-04T16:08:35.127Z,97956.92
2018-09-04T16:11:04.276Z,97964.89
2018-09-04T16:13:33.402Z,97961.67
2018-09-04T16:16:02.584Z,97966.64
2018-09-04T16:18:32.450Z,97972.05
2018-09-04T16:21:01.566Z,97974.47
2018-09-04T16:23:30.681Z,97967.05
2018-09-04T16:26:00.590Z,97973.08
2018-09-04T16:28:29.781Z,97965.63
2018-09-04T16:30:58.925Z,97969.67
2018-09-04T16:33:28.394Z,97969.45
2018-09-04T16:35:57.518Z,97973.19
2018-09-04T16:38:26.687Z,97976.53
2018-09-04T16:40:55.846Z,97975.05
2018-09-04T16:43:24.973Z,97982.28
2018-09-04T16:45:54.129Z,97975.92
2018-09-04T16:48:23.271Z,97983.80
2018-09-04T16:50:52.390Z,97974.73
2018-09-04T16:53:21.554Z,97986.34
2018-09-04T16:55:54.442Z,97986.83
2018-09-04T16:58:24.296Z,97978.76
2018-09-04T17:00:52.981Z,97985.09
2018-09-04T17:03:22.754Z,97981.13
2018-09-04T17:05:52.382Z,97982.70
2018-09-04T17:08:21.501Z,97984.88
2018-09-04T17:10:50.643Z,97985.91
2018-09-04T17:13:19.789Z,97979.62
2018-09-04T17:15:54.786Z,97988.43
2018-09-04T17:18:24.141Z,97989.89
2018-09-04T17:20:54.573Z,97991.48
2018-09-04T17:23:23.813Z,97995.22
2018-09-04T17:25:52.973Z,97996.63
2018-09-04T17:28:22.101Z,97997.47
2018-09-04T17:30:51.234Z,97991.56
2018-09-04T17:33:20.443Z,97996.83
2018-09-04T17:35:49.658Z,98004.61
2018-09-04T17:38:18.853Z,98005.16
2018-09-04T17:40:47.942Z,98010.34
2018-09-04T17:43:17.250Z,98010.41
2018-09-04T17:45:46.405Z,98014.30
2018-09-04T17:48:15.523Z,98017.20
2018-09-04T17:50:44.668Z,98022.65
2018-09-04T17:53:13.800Z,98019.85
2018-09-04T17:55:42.949Z,98029.14
2018-09-04T17:58:12.085Z,98028.89
2018-09-04T18:00:41.742Z,98029.41
2018-09-04T18:03:10.801Z,98029.93
2018-09-04T18:05:40.321Z,98034.33
2018-09-04T18:08:10.659Z,98037.72
2018-09-04T18:10:40.663Z,98039.78
2018-09-04T18:13:09.767Z,98045.72
2018-09-04T18:15:40.345Z,98045.72
2018-09-04T18:18:11.173Z,98049.60
2018-09-04T18:20:40.331Z,98050.37
2018-09-04T18:23:11.038Z,98053.37
2018-09-04T18:25:40.470Z,98052.27
2018-09-04T18:28:09.590Z,98059.25
2018-09-04T18:30:39.081Z,98054.22
2018-09-04T18:33:09.671Z,98060.83
2018-09-04T18:35:38.794Z,98068.50
2018-09-04T18:38:09.045Z,98063.19
2018-09-04T18:40:38.305Z,98068.06
2018-09-04T18:43:07.424Z,98070.53
2018-09-04T18:45:48.701Z,98077.48
2018-09-04T18:48:18.186Z,98082.19
2018-09-04T18:50:47.338Z,98088.64
2018-09-04T18:53:16.582Z,98091.75
2018-09-04T18:55:45.706Z,98088.15
2018-09-04T18:58:15.377Z,98100.53
2018-09-04T19:00:44.829Z,98098.02
2018-09-04T19:03:15.174Z,98099.42
2018-09-04T19:05:50.179Z,98106.47
2018-09-04T19:08:24.438Z,98101.09
2018-09-04T19:10:55.032Z,98098.81
2018-09-04T19:13:24.154Z,98102.97
2018-09-04T19:15:53.303Z,98108.13
2018-09-04T19:18:23.385Z,98106.30
2018-09-04T19:20:52.562Z,98108.47
2018-09-04T19:23:21.710Z,98103.81
2018-09-04T19:25:50.842Z,98099.85
2018-09-04T19:28:19.953Z,98104.55
2018-09-04T19:30:49.106Z,98101.16
2018-09-04T19:36:19.001Z,98097.73
2018-09-04T19:38:49.149Z,98097.96
2018-09-04T19:41:18.314Z,98097.48
2018-09-04T19:46:27.218Z,98103.03
2018-09-04T19:48:56.427Z,98108.20
2018-09-04T19:51:25.579Z,98100.27
2018-09-04T19:53:57.753Z,98104.61
2018-09-04T19:56:27.854Z,98108.18
2018-09-04T19:58:57.031Z,98113.79
2018-09-04T20:01:26.154Z,98119.20
2018-09-04T20:04:01.534Z,98112.23
2018-09-04T20:06:31.804Z,98116.37
2018-09-04T20:09:01.137Z,98117.96
2018-09-04T20:11:29.980Z,98114.22
2018-09-04T20:13:59.131Z,98116.87
2018-09-04T20:16:28.266Z,98119.92
2018-09-04T20:18:57.401Z,98120.93
2018-09-04T20:21:26.507Z,98126.34
2018-09-04T20:23:55.669Z,98123.70
2018-09-04T20:26:24.827Z,98125.06
2018-09-04T20:28:54.006Z,98124.83
2018-09-04T20:31:23.608Z,98125.37
2018-09-04T20:33:53.632Z,98130.44
2018-09-04T20:36:22.866Z,98133.19
2018-09-04T20:38:52.690Z,98130.72
2018-09-04T20:41:21.888Z,98132.41
2018-09-04T20:43:51.633Z,98133.17
2018-09-04T20:46:20.818Z,98137.50
2018-09-04T20:48:50.010Z,98141.72
2018-09-04T20:51:22.096Z,98141.16
2018-09-04T20:53:51.262Z,98147.92
2018-09-04T20:56:20.443Z,98145.23
2018-09-04T20:59:06.495Z,98138.27
2018-09-04T21:01:52.718Z,98140.59
2018-09-04T21:04:33.466Z,98145.64
2018-09-04T21:09:42.681Z,98139.88
2018-09-04T21:12:11.807Z,98135.32
2018-09-04T21:14:41.758Z,98136.29
2018-09-04T21:17:10.895Z,98141.78
2018-09-04T21:19:40.025Z,98142.42
2018-09-04T21:22:09.170Z,98138.73
2018-09-04T21:24:38.413Z,98143.50
2018-09-04T21:27:07.554Z,98144.11
2018-09-04T21:29:37.134Z,98139.20
2018-09-04T21:32:06.348Z,98143.18
2018-09-04T21:34:35.499Z,98140.43
2018-09-04T21:37:04.777Z,98144.86
2018-09-04T21:39:33.924Z,98145.62
2018-09-04T21:42:03.062Z,98140.13
2018-09-04T21:44:32.214Z,98146.80
2018-09-04T21:47:01.333Z,98145.66
2018-09-04T21:49:30.442Z,98148.40
2018-09-04T21:51:59.634Z,98147.88
2018-09-04T21:54:28.758Z,98150.13
2018-09-04T21:56:57.885Z,98151.36
2018-09-04T21:59:27.274Z,98149.58
2018-09-04T22:01:56.617Z,98148.13
2018-09-04T22:04:25.774Z,98155.86
2018-09-04T22:06:55.002Z,98151.89
2018-09-04T22:09:24.142Z,98148.58
2018-09-04T22:11:53.350Z,98145.20
2018-09-04T22:14:23.278Z,98150.61
2018-09-04T22:16:52.403Z,98151.29
2018-09-04T22:19:21.098Z,98153.18
2018-09-04T22:21:50.422Z,98150.00
2018-09-04T22:24:19.546Z,98152.50
2018-09-04T22:26:48.716Z,98150.58
2018-09-04T22:29:17.893Z,98153.01
2018-09-04T22:31:47.021Z,98154.77
2018-09-04T22:34:16.158Z,98150.20
2018-09-04T22:36:45.441Z,98153.51
2018-09-04T22:39:14.584Z,98152.32
2018-09-04T22:41:43.698Z,98158.99
2018-09-04T22:44:13.242Z,98159.33
2018-09-04T22:46:42.387Z,98154.84
2018-09-04T22:49:11.501Z,98156.99
2018-09-04T22:51:41.039Z,98153.67
2018-09-04T22:54:10.186Z,98153.71
2018-09-04T22:56:39.617Z,98153.71
2018-09-04T22:59:08.758Z,98147.73
2018-09-04T23:01:38.068Z,98147.30
2018-09-04T23:04:07.271Z,98149.45
2018-09-04T23:06:36.527Z,98152.95
2018-09-04T23:09:08.187Z,98153.37
2018-09-04T23:11:37.326Z,98154.88
2018-09-04T23:14:06.469Z,98148.25
2018-09-04T23:16:35.637Z,98149.20
2018-09-04T23:19:05.007Z,98152.03
2018-09-04T23:21:34.133Z,98146.70
2018-09-04T23:24:03.271Z,98147.68
2018-09-04T23:26:32.985Z,98151.31
2018-09-04T23:29:02.162Z,98151.17
2018-09-04T23:31:31.329Z,98156.61
2018-09-04T23:34:00.453Z,98152.19
2018-09-04T23:36:29.662Z,98160.88
2018-09-04T23:38:58.833Z,98153.33
2018-09-04T23:41:27.963Z,98154.90
2018-09-04T23:43:57.509Z,98153.98
2018-09-04T23:46:26.650Z,98149.20
2018-09-04T23:48:56.602Z,98152.83
2018-09-04T23:51:25.714Z,98155.03
2018-09-04T23:53:55.955Z,98157.17
2018-09-04T23:56:25.074Z,98155.54
2018-09-04T23:58:54.224Z,98150.19
